»·PEaware :: N843CW CYYJ-S86

N843CW :: CYYJ-S86

FLIGHT INFORMATION

Flight Status: Arrived
Operator: Privately registered:
United States
More flights under this callsign
Pilot: Phillip K. (27121)
Aircraft: CESSNA 172 SKYHAWK
(C172)
More flights by this aircraft type
Origin: CYYJ Victoria Intl
Canada
Destination: S86 Sky Harbor
United States
More flights between these airports :: More routes between these airports
Route: CONDI V495 DIGGN
File this flight plan on PilotEdge
Remarks:
Altitude:
(Current/Filed)
3,000ft
Speed:
(Current/Filed)
110kts
Departed: 01-Dec-19 02:15 PM
Arrived: 01-Dec-19 03:12 PM
Distance/Time
Traveled:
80nm/0:57
Distance/Time
To Go:
Arrived

Flight Plot

Page will automatically refresh every two minutes.

Flight plan parsing failed; only flown route is shown


Map Options




Map Legend


Flown Route
Filed Route
Departure Airport
Arrival Airport
Navaid (VOR, NDB)
Fix

Horizontal Profiles

Position Reports

Time Latitude Longitude Heading Altitude Ground
Speed
01-Dec-19 14:08 48.642049 -123.419015 264 58ft 0kts
01-Dec-19 14:09 48.642049 -123.419015 264 58ft 0kts
01-Dec-19 14:10 48.642049 -123.419015 264 58ft 0kts
01-Dec-19 14:11 48.642049 -123.419015 264 58ft 0kts
01-Dec-19 14:12 48.642049 -123.419015 264 58ft 0kts
01-Dec-19 14:13 48.642793 -123.423365 283 58ft 24kts
01-Dec-19 14:14 48.648683 -123.431330 308 265ft 68kts
01-Dec-19 14:15 48.657572 -123.455569 233 1003ft 82kts
01-Dec-19 14:16 48.642612 -123.438520 123 1836ft 83kts
01-Dec-19 14:17 48.623077 -123.415860 139 2490ft 103kts
01-Dec-19 14:18 48.600056 -123.382751 134 2924ft 121kts
01-Dec-19 14:19 48.576451 -123.345637 131 3329ft 121kts
01-Dec-19 14:20 48.552512 -123.307933 132 3455ft 124kts
01-Dec-19 14:21 48.529529 -123.271422 131 3457ft 117kts
01-Dec-19 14:22 48.505063 -123.240062 148 3456ft 117kts
01-Dec-19 14:23 48.476693 -123.216896 148 3458ft 117kts
01-Dec-19 14:24 48.448679 -123.193134 147 3474ft 115kts
01-Dec-19 14:25 48.420713 -123.169083 147 3485ft 117kts
01-Dec-19 14:26 48.392240 -123.144699 147 3467ft 118kts
01-Dec-19 14:27 48.363660 -123.120226 147 3457ft 117kts
01-Dec-19 14:28 48.335363 -123.095980 147 3457ft 117kts
01-Dec-19 14:29 48.307072 -123.071771 147 3458ft 117kts
01-Dec-19 14:30 48.279139 -123.047906 147 3457ft 117kts
01-Dec-19 14:31 48.252581 -123.025271 147 3457ft 117kts
01-Dec-19 14:32 48.227838 -123.004189 147 3457ft 117kts
01-Dec-19 14:33 48.204314 -122.984125 147 3510ft 114kts
01-Dec-19 14:34 48.180159 -122.963613 147 3459ft 117kts
01-Dec-19 14:35 48.155547 -122.942753 148 3457ft 116kts
01-Dec-19 14:36 48.132274 -122.923059 147 3457ft 116kts
01-Dec-19 14:37 48.110615 -122.904729 147 3457ft 116kts
01-Dec-19 14:38 48.085179 -122.882976 146 3457ft 117kts
01-Dec-19 14:39 48.062835 -122.863904 147 3457ft 118kts
01-Dec-19 14:40 48.041892 -122.846241 147 3457ft 118kts
01-Dec-19 14:41 48.020933 -122.828727 148 3457ft 118kts
01-Dec-19 14:42 48.002699 -122.813476 147 3458ft 118kts
01-Dec-19 14:43 47.982671 -122.796622 147 3458ft 118kts
01-Dec-19 14:44 47.956442 -122.774390 147 3458ft 118kts
01-Dec-19 14:45 47.944694 -122.741987 94 3459ft 114kts
01-Dec-19 14:46 47.942198 -122.706419 94 3457ft 114kts
01-Dec-19 14:47 47.938973 -122.665694 95 3457ft 114kts
01-Dec-19 14:48 47.935971 -122.629402 94 3457ft 114kts
01-Dec-19 14:49 47.932799 -122.590343 95 3460ft 124kts
01-Dec-19 14:50 47.929295 -122.548263 96 3457ft 126kts
01-Dec-19 14:51 47.925576 -122.503429 97 3457ft 126kts
01-Dec-19 14:52 47.921758 -122.457563 97 3457ft 126kts
01-Dec-19 14:53 47.918060 -122.413945 97 3457ft 126kts
01-Dec-19 14:54 47.914127 -122.367339 97 3457ft 126kts
01-Dec-19 14:55 47.910434 -122.323601 98 3457ft 127kts
01-Dec-19 14:56 47.906760 -122.280351 98 3457ft 127kts
01-Dec-19 14:57 47.903728 -122.238747 96 3457ft 127kts
01-Dec-19 14:58 47.900644 -122.195713 96 3457ft 127kts
01-Dec-19 14:59 47.897277 -122.148780 96 3458ft 127kts
01-Dec-19 15:00 47.893901 -122.102684 96 3458ft 127kts
01-Dec-19 15:01 47.890553 -122.057315 96 3458ft 127kts
01-Dec-19 15:02 47.887410 -122.014953 96 3458ft 127kts
01-Dec-19 15:03 47.883886 -121.967705 96 3458ft 127kts
01-Dec-19 15:04 47.879652 -121.920811 108 3235ft 132kts
01-Dec-19 15:05 47.870579 -121.876072 97 2528ft 130kts
01-Dec-19 15:06 47.870075 -121.827186 88 1395ft 122kts
01-Dec-19 15:07 47.868436 -121.782664 92 467ft 112kts
01-Dec-19 15:08 47.872675 -121.779729 233 619ft 113kts
01-Dec-19 15:09 47.872776 -121.808876 263 432ft 86kts
01-Dec-19 15:10 47.870622 -121.788450 90 285ft 63kts
01-Dec-19 15:11 47.870720 -121.784452 270 285ft 33kts
01-Dec-19 15:12 47.870702 -121.787125 268 285ft 0kts
01-Dec-19 15:13 47.870702 -121.787128 268 285ft 0kts
01-Dec-19 15:14 47.870702 -121.787128 268 285ft 0kts
01-Dec-19 15:15 47.870702 -121.787128 268 285ft 0kts
01-Dec-19 15:16 47.870702 -121.787128 268 285ft 0kts
01-Dec-19 15:17 47.870702 -121.787128 268 285ft 0kts
01-Dec-19 15:18 47.870702 -121.787128 268 285ft 0kts
01-Dec-19 15:19 47.870702 -121.787128 268 285ft 0kts
01-Dec-19 15:20 47.870702 -121.787128 268 285ft 0kts
01-Dec-19 15:21 47.870702 -121.787128 268 285ft 0kts
01-Dec-19 15:22 47.870702 -121.787128 268 285ft 0kts
01-Dec-19 15:23 47.870702 -121.787128 268 285ft 0kts
01-Dec-19 15:24 47.870702 -121.787128 268 285ft 0kts
01-Dec-19 15:25 47.870702 -121.787128 268 285ft 0kts
01-Dec-19 15:26 47.870615 -121.798769 270 423ft 71kts

Navigation Log

Ident Type
Flight plan parsing failed, navigation log unavailable